Aérodrome :
LOGIN :

S'inscrire | Disclaimer

   EN    FR    IT 

 










Légende :    VFR   VFR Marginal   IFR   IFR Intensif   IFR Très Intensif
Visi : 
Plafond : 
>= 8 km
>= 3000ft
5 à 8 km
1000 à 3000 ft
1500m à 5 km
500 à 1000 ft
800 à 1500m
200 à 500 ft
< 800m
< 200 ft
Symboles :   Orages  Brouillard  Fortes neiges  Fortes précipitations  Vent > 20 kt
SIGMETs :   Divers  Orages  Givrage  Turbulence  Onde Orograph.  Cendres Volcan.







- Altitude de l'aérodrome : 65 ft
- Code IATA : PMO


LICJ - Palermo Punta Raisi

DERNIER METAR :
  • 151120Z 19022G32KT 160V220 CAVOK 18/07 Q1010

METARs EXPIRÉS :
  • 151050Z 21020KT CAVOK 18/06 Q1010
  • 151020Z 21020KT 9999 FEW030 17/06 Q1011
  • 150950Z 21020KT 9999 FEW025 17/07 Q1012
  • 150920Z 20020KT 9999 FEW020 16/08 Q1012
  • 150850Z 20019KT CAVOK 16/07 Q1012

TAF TAF LICJ
Valide du 15 à 12h jusqu'au 16 à 12h UTC


151100Z 1512/1612 21020G30KT 9999 SCT030
TEMPO 1600/1606 RA
BECMG 1602/1604 28014KT
Pas de NOTAMs connus pour ce terrain.
1 SIGMET publié pour la FIR Roma (LIRR) :
 
Turbulence forte
LIRR SIGMET 5 VALID 151100/151300 LIIB
LIRR ROMA FIR SEV TURB FCST WI N4332 E01031 - N4341 E01121 - N4329 E01315 - N4257 E01305 - N4128 E01417 - N4105 E01509 - N4007 E01541 - N4021 E01502 - N4209 E01244 - N4332 E01031 FL020/150 STNR NC=



MET'MAP, la Météo Aéronautique d'un coup d'oeil ! - Copyright ORBIFLY Décembre 2007 - Disclaimer

ORBIFLY MET'MAP TEAM :

Programmation & Développement : Alexandra Zaïnal
Conception & Développement : Baudouin d'Aumeries
Co-Programmation & Développement : Marc-Olivier Méhu
Soutien technique & logistique : Manuel Goepfert

Contact : metmap@orbifly.com




SOURCES & CREDITS :

   NOAA